createdAt,value
2017-03-16T00:00:11.760Z,23.37
2017-03-16T00:00:31.040Z,23.34
2017-03-16T00:00:50.299Z,23.31
2017-03-16T00:01:09.591Z,23.29
2017-03-16T00:01:28.889Z,23.23
2017-03-16T00:01:48.183Z,23.23
2017-03-16T00:02:07.522Z,23.26
2017-03-16T00:02:26.286Z,23.23
2017-03-16T00:02:44.526Z,23.27
2017-03-16T00:03:03.808Z,23.29
2017-03-16T00:03:22.594Z,23.31
2017-03-16T00:03:40.355Z,23.29
2017-03-16T00:03:59.639Z,23.35
2017-03-16T00:04:17.906Z,23.31
2017-03-16T00:04:37.198Z,23.38
2017-03-16T00:04:56.506Z,23.33
2017-03-16T00:05:29.789Z,23.26
2017-03-16T00:05:48.588Z,23.27
2017-03-16T00:06:07.889Z,23.33
2017-03-16T00:06:26.174Z,23.31
2017-03-16T00:06:45.452Z,23.27
2017-03-16T00:07:04.224Z,23.18
2017-03-16T00:07:23.192Z,23.22
2017-03-16T00:07:41.986Z,23.18
2017-03-16T00:08:01.308Z,23.18
2017-03-16T00:08:20.100Z,23.22
2017-03-16T00:08:39.376Z,23.26
2017-03-16T00:08:58.645Z,23.31
2017-03-16T00:09:17.926Z,23.33
2017-03-16T00:09:37.196Z,23.29
2017-03-16T00:09:55.977Z,23.33
2017-03-16T00:10:15.254Z,23.31
2017-03-16T00:10:34.013Z,23.27
2017-03-16T00:10:53.292Z,23.29
2017-03-16T00:11:12.080Z,23.26
2017-03-16T00:11:30.857Z,23.24
2017-03-16T00:11:50.146Z,23.34
2017-03-16T00:12:08.923Z,23.34
2017-03-16T00:12:28.242Z,23.29
2017-03-16T00:12:47.529Z,23.35
2017-03-16T00:13:06.823Z,23.29
2017-03-16T00:13:25.587Z,23.33
2017-03-16T00:13:44.875Z,23.33
2017-03-16T00:14:03.128Z,23.4
2017-03-16T00:14:21.896Z,23.38
2017-03-16T00:14:41.203Z,23.37
2017-03-16T00:15:00.517Z,23.4
2017-03-16T00:15:19.849Z,23.38
2017-03-16T00:15:38.657Z,23.43
2017-03-16T00:15:57.405Z,23.37
2017-03-16T00:16:16.697Z,23.46
2017-03-16T00:16:35.989Z,23.43
2017-03-16T00:16:55.276Z,23.4
2017-03-16T00:17:14.562Z,23.35
2017-03-16T00:17:33.852Z,23.46
2017-03-16T00:17:53.146Z,23.46
2017-03-16T00:18:11.379Z,23.4
2017-03-16T00:18:30.683Z,23.48
2017-03-16T00:18:49.962Z,23.45
2017-03-16T00:19:09.264Z,23.4
2017-03-16T00:19:28.543Z,23.38
2017-03-16T00:19:47.330Z,23.43
2017-03-16T00:20:06.637Z,23.43
2017-03-16T00:20:25.931Z,23.4
2017-03-16T00:20:44.712Z,23.42
2017-03-16T00:21:04.015Z,23.42
2017-03-16T00:21:23.350Z,23.35
2017-03-16T00:21:42.143Z,23.46
2017-03-16T00:22:01.441Z,23.38
2017-03-16T00:22:20.731Z,23.4
2017-03-16T00:22:38.999Z,23.42
2017-03-16T00:22:58.268Z,23.37
2017-03-16T00:23:17.564Z,23.42
2017-03-16T00:23:36.867Z,23.35
2017-03-16T00:23:55.644Z,23.46
2017-03-16T00:24:14.431Z,23.4
2017-03-16T00:24:33.714Z,23.37
2017-03-16T00:24:52.997Z,23.38
2017-03-16T00:25:12.299Z,23.42
2017-03-16T00:25:31.599Z,23.42
2017-03-16T00:25:50.912Z,23.48
2017-03-16T00:26:09.673Z,23.45
2017-03-16T00:26:28.989Z,23.53
2017-03-16T00:26:48.295Z,23.52
2017-03-16T00:27:07.603Z,23.52
2017-03-16T00:27:26.938Z,23.5
2017-03-16T00:27:46.246Z,23.43
2017-03-16T00:28:05.039Z,23.45
2017-03-16T00:28:24.331Z,23.42
2017-03-16T00:28:43.086Z,23.4
2017-03-16T00:29:02.404Z,23.37
2017-03-16T00:29:21.144Z,23.27
2017-03-16T00:29:40.423Z,23.31
2017-03-16T00:29:59.198Z,23.33
2017-03-16T00:30:18.481Z,23.29
2017-03-16T00:30:37.798Z,23.29
2017-03-16T00:30:57.096Z,23.34
2017-03-16T00:31:16.385Z,23.37
2017-03-16T00:31:35.160Z,23.33
2017-03-16T00:31:54.453Z,23.35
2017-03-16T00:32:13.756Z,23.38
2017-03-16T00:32:33.048Z,23.29
2017-03-16T00:32:51.790Z,23.31
2017-03-16T00:33:11.093Z,23.34
2017-03-16T00:33:30.380Z,23.33
2017-03-16T00:33:49.691Z,23.29
2017-03-16T00:34:08.990Z,23.29
2017-03-16T00:34:28.284Z,23.31
2017-03-16T00:34:47.590Z,23.26
2017-03-16T00:35:06.873Z,23.31
2017-03-16T00:35:25.684Z,23.29
2017-03-16T00:35:44.984Z,23.31
2017-03-16T00:36:04.298Z,23.29
2017-03-16T00:36:23.601Z,23.31
2017-03-16T00:36:42.902Z,23.29
2017-03-16T00:37:02.200Z,23.27
2017-03-16T00:37:21.613Z,23.26
2017-03-16T00:37:40.402Z,23.33
2017-03-16T00:37:59.180Z,23.33
2017-03-16T00:38:18.480Z,23.31
2017-03-16T00:38:37.780Z,23.29
2017-03-16T00:38:57.074Z,23.33
2017-03-16T00:39:15.841Z,23.38
2017-03-16T00:39:35.138Z,23.35
2017-03-16T00:39:52.869Z,23.37
2017-03-16T00:40:12.189Z,23.34
2017-03-16T00:40:30.954Z,23.4
2017-03-16T00:40:50.244Z,23.29
2017-03-16T00:41:09.525Z,23.43
2017-03-16T00:41:28.822Z,23.45
2017-03-16T00:41:48.125Z,23.42
2017-03-16T00:42:07.457Z,23.4
2017-03-16T00:42:26.751Z,23.4
2017-03-16T00:42:46.049Z,23.42
2017-03-16T00:43:05.325Z,23.45
2017-03-16T00:43:24.180Z,23.45
2017-03-16T00:43:43.483Z,23.38
2017-03-16T00:44:02.742Z,23.48
2017-03-16T00:44:22.019Z,23.52
2017-03-16T00:44:40.774Z,23.52
2017-03-16T00:45:00.068Z,23.45
2017-03-16T00:45:18.345Z,23.5
2017-03-16T00:45:37.651Z,23.5
2017-03-16T00:45:56.931Z,23.45
2017-03-16T00:46:15.704Z,23.52
2017-03-16T00:46:34.483Z,23.5
2017-03-16T00:46:53.791Z,23.49
2017-03-16T00:47:12.643Z,23.42
2017-03-16T00:47:31.925Z,23.37
2017-03-16T00:47:50.689Z,23.5
2017-03-16T00:48:09.455Z,23.35
2017-03-16T00:48:28.248Z,23.38
2017-03-16T00:48:47.561Z,23.43
2017-03-16T00:49:06.860Z,23.4
2017-03-16T00:49:26.180Z,23.38
2017-03-16T00:49:44.955Z,23.45
2017-03-16T00:50:04.251Z,23.45
2017-03-16T00:50:23.548Z,23.38
2017-03-16T00:50:42.961Z,23.43
2017-03-16T00:51:02.251Z,23.43
2017-03-16T00:51:21.562Z,23.43
2017-03-16T00:51:40.849Z,23.45
2017-03-16T00:52:00.119Z,23.37
2017-03-16T00:52:18.901Z,23.43
2017-03-16T00:52:37.793Z,23.42
2017-03-16T00:52:57.088Z,23.35
2017-03-16T00:53:15.862Z,23.37
2017-03-16T00:53:35.162Z,23.42
2017-03-16T00:53:53.932Z,23.33
2017-03-16T00:54:13.234Z,23.43
2017-03-16T00:54:32.531Z,23.38
2017-03-16T00:54:51.821Z,23.35
2017-03-16T00:55:10.606Z,23.4
2017-03-16T00:55:29.903Z,23.43
2017-03-16T00:55:49.209Z,23.31
2017-03-16T00:56:08.501Z,23.33
2017-03-16T00:56:27.780Z,23.34
2017-03-16T00:56:47.093Z,23.37
2017-03-16T00:57:05.864Z,23.37
2017-03-16T00:57:25.161Z,23.31
2017-03-16T00:57:43.941Z,23.27
2017-03-16T00:58:03.274Z,23.33
2017-03-16T00:58:22.034Z,23.34
2017-03-16T00:58:40.844Z,23.26
2017-03-16T00:59:00.182Z,23.26
2017-03-16T00:59:19.508Z,23.26
2017-03-16T00:59:38.843Z,23.31
2017-03-16T00:59:57.601Z,23.31
2017-03-16T01:00:16.907Z,23.27
2017-03-16T01:00:35.698Z,23.35
2017-03-16T01:00:54.974Z,23.31
2017-03-16T01:01:13.793Z,23.31
2017-03-16T01:01:32.602Z,23.34
2017-03-16T01:01:51.890Z,23.29
2017-03-16T01:02:11.206Z,23.4
2017-03-16T01:02:30.522Z,23.33
2017-03-16T01:02:49.823Z,23.38
2017-03-16T01:03:08.598Z,23.33
2017-03-16T01:03:27.940Z,23.38
2017-03-16T01:03:47.234Z,23.31
2017-03-16T01:04:06.526Z,23.33
2017-03-16T01:04:25.822Z,23.38
2017-03-16T01:04:45.127Z,23.4
2017-03-16T01:05:03.905Z,23.22
2017-03-16T01:05:23.221Z,23.33
2017-03-16T01:05:42.526Z,23.26
2017-03-16T01:06:01.840Z,23.29
2017-03-16T01:06:21.133Z,23.26
2017-03-16T01:06:39.416Z,23.2
2017-03-16T01:06:57.704Z,23.22
2017-03-16T01:07:17.004Z,23.24
2017-03-16T01:07:36.292Z,23.23
2017-03-16T01:07:55.588Z,23.24
2017-03-16T01:08:14.336Z,23.18
2017-03-16T01:08:33.653Z,23.18
2017-03-16T01:08:52.947Z,23.26
2017-03-16T01:09:12.248Z,23.24
2017-03-16T01:09:31.025Z,23.15
2017-03-16T01:09:49.799Z,23.29
2017-03-16T01:10:08.040Z,23.24
2017-03-16T01:10:27.376Z,23.23
2017-03-16T01:10:46.176Z,23.31
2017-03-16T01:11:04.977Z,23.2
2017-03-16T01:11:24.300Z,23.22
2017-03-16T01:11:43.587Z,23.23
2017-03-16T01:12:02.852Z,23.31
2017-03-16T01:12:21.214Z,23.35
2017-03-16T01:12:40.474Z,23.31
2017-03-16T01:12:59.796Z,23.29
2017-03-16T01:13:19.084Z,23.2
2017-03-16T01:13:38.386Z,23.17
2017-03-16T01:13:56.617Z,23.17
2017-03-16T01:14:15.929Z,23.23
2017-03-16T01:14:35.207Z,23.23
2017-03-16T01:14:53.500Z,23.27
2017-03-16T01:15:12.790Z,23.23
2017-03-16T01:15:32.091Z,23.27
2017-03-16T01:15:50.860Z,23.33
2017-03-16T01:16:10.136Z,23.27
2017-03-16T01:16:29.451Z,23.27
2017-03-16T01:16:48.216Z,23.29
2017-03-16T01:17:07.496Z,23.24
2017-03-16T01:17:26.781Z,23.31
2017-03-16T01:17:46.061Z,23.29
2017-03-16T01:18:05.351Z,23.31
2017-03-16T01:18:24.654Z,23.27
2017-03-16T01:18:43.437Z,23.29
2017-03-16T01:19:02.716Z,23.22
2017-03-16T01:19:22.047Z,23.15
2017-03-16T01:19:41.353Z,23.15
2017-03-16T01:20:00.674Z,23.22
2017-03-16T01:20:19.441Z,23.27
2017-03-16T01:20:38.738Z,23.2
2017-03-16T01:20:57.504Z,23.22
2017-03-16T01:21:16.795Z,23.2
2017-03-16T01:21:36.096Z,23.2
2017-03-16T01:21:55.407Z,23.24
2017-03-16T01:22:14.186Z,23.23
2017-03-16T01:22:32.937Z,23.24
2017-03-16T01:22:52.222Z,23.27
2017-03-16T01:23:11.548Z,23.22
2017-03-16T01:23:30.840Z,23.26
2017-03-16T01:23:50.179Z,23.24
2017-03-16T01:24:08.954Z,23.22
2017-03-16T01:24:28.212Z,23.24
2017-03-16T01:24:47.510Z,23.24
2017-03-16T01:25:05.281Z,23.22
2017-03-16T01:25:24.615Z,23.23
2017-03-16T01:25:42.878Z,23.23
2017-03-16T01:26:02.164Z,23.23
2017-03-16T01:26:21.466Z,23.26
2017-03-16T01:26:40.823Z,23.29
2017-03-16T01:27:00.129Z,23.23
2017-03-16T01:27:18.925Z,23.33
2017-03-16T01:27:38.229Z,23.29
2017-03-16T01:27:57.498Z,23.33
2017-03-16T01:28:16.308Z,23.35
2017-03-16T01:28:35.594Z,23.31
2017-03-16T01:28:54.875Z,23.31
2017-03-16T01:29:13.640Z,23.33
2017-03-16T01:29:32.922Z,23.42
2017-03-16T01:29:52.244Z,23.33
2017-03-16T01:30:11.501Z,23.26
2017-03-16T01:30:30.812Z,23.33
2017-03-16T01:30:50.087Z,23.23
2017-03-16T01:31:08.349Z,23.29
2017-03-16T01:31:27.612Z,23.24
2017-03-16T01:31:46.422Z,23.34
2017-03-16T01:32:05.728Z,23.24
2017-03-16T01:32:24.522Z,23.2
2017-03-16T01:32:43.811Z,23.22
2017-03-16T01:33:03.085Z,23.18
2017-03-16T01:33:22.399Z,23.26
2017-03-16T01:33:41.206Z,23.26
2017-03-16T01:34:00.493Z,23.29
2017-03-16T01:34:19.829Z,23.33
2017-03-16T01:34:39.139Z,23.31
2017-03-16T01:34:58.458Z,23.31
2017-03-16T01:35:17.755Z,23.31
2017-03-16T01:35:36.523Z,23.29
2017-03-16T01:35:55.797Z,23.33
2017-03-16T01:36:15.080Z,23.29
2017-03-16T01:36:34.344Z,23.26
2017-03-16T01:36:53.628Z,23.29
2017-03-16T01:37:12.929Z,23.23
2017-03-16T01:37:32.233Z,23.22
2017-03-16T01:37:51.536Z,23.18
2017-03-16T01:38:10.838Z,23.14
2017-03-16T01:38:30.143Z,23.08
2017-03-16T01:38:49.455Z,23.14
2017-03-16T01:39:08.756Z,23.17
2017-03-16T01:39:28.065Z,23.2
2017-03-16T01:39:46.863Z,23.18
2017-03-16T01:40:06.157Z,23.2
2017-03-16T01:40:24.907Z,23.2
2017-03-16T01:40:44.162Z,23.22
2017-03-16T01:41:03.476Z,23.22
2017-03-16T01:41:22.746Z,23.23
2017-03-16T01:41:42.034Z,23.22
2017-03-16T01:42:00.831Z,23.22
2017-03-16T01:42:20.355Z,23.27
2017-03-16T01:42:39.647Z,23.22
2017-03-16T01:42:58.925Z,23.22
2017-03-16T01:43:18.222Z,23.23
2017-03-16T01:43:37.516Z,23.22
2017-03-16T01:43:56.852Z,23.18
2017-03-16T01:44:16.142Z,23.22
2017-03-16T01:44:34.400Z,23.2
2017-03-16T01:44:53.173Z,23.07
2017-03-16T01:45:11.980Z,23.07
2017-03-16T01:45:30.742Z,23.09
2017-03-16T01:45:50.076Z,23.15
2017-03-16T01:46:09.352Z,23.17
2017-03-16T01:46:28.143Z,23
2017-03-16T01:46:46.917Z,23.12
2017-03-16T01:47:05.682Z,23.14
2017-03-16T01:47:24.978Z,23.09
2017-03-16T01:47:44.275Z,23.11
2017-03-16T01:48:03.559Z,23.12
2017-03-16T01:48:22.882Z,22.94
2017-03-16T01:48:42.168Z,22.93
2017-03-16T01:49:01.459Z,23.04
2017-03-16T01:49:20.746Z,22.99
2017-03-16T01:49:40.031Z,22.99
2017-03-16T01:49:59.365Z,23.05
2017-03-16T01:50:18.326Z,23.07
2017-03-16T01:50:37.599Z,23.08
2017-03-16T01:50:56.876Z,22.99
2017-03-16T01:51:15.643Z,22.97
2017-03-16T01:51:34.965Z,23.11
2017-03-16T01:51:54.285Z,23.09
2017-03-16T01:52:13.080Z,23.07
2017-03-16T01:52:32.393Z,23.09
2017-03-16T01:52:51.676Z,23.07
2017-03-16T01:53:10.936Z,23.05
2017-03-16T01:53:30.274Z,23.07
2017-03-16T01:53:49.566Z,23.12
2017-03-16T01:54:08.866Z,23.08
2017-03-16T01:54:28.143Z,23.07
2017-03-16T01:54:47.423Z,23.08
2017-03-16T01:55:06.186Z,22.99
2017-03-16T01:55:25.491Z,23.09
2017-03-16T01:55:44.792Z,23.07
2017-03-16T01:56:03.544Z,23.02
2017-03-16T01:56:22.848Z,23.08
2017-03-16T01:56:41.621Z,23.04
2017-03-16T01:57:00.417Z,23
2017-03-16T01:57:19.860Z,23.09
2017-03-16T01:57:38.126Z,23.08
2017-03-16T01:57:57.409Z,23.07
2017-03-16T01:58:16.690Z,23.08
2017-03-16T01:58:35.474Z,23.09
2017-03-16T01:58:54.789Z,23.11
2017-03-16T01:59:14.118Z,23.08
2017-03-16T01:59:33.432Z,23.07
2017-03-16T01:59:52.721Z,23.07
2017-03-16T02:00:11.500Z,23.11
2017-03-16T02:00:30.302Z,23.14
2017-03-16T02:00:49.600Z,23
2017-03-16T02:01:08.886Z,23.15
2017-03-16T02:01:27.697Z,23.08
2017-03-16T02:01:46.480Z,23.07
2017-03-16T02:02:05.250Z,23.08
2017-03-16T02:02:24.550Z,23.04
2017-03-16T02:02:43.833Z,23.07
2017-03-16T02:03:03.119Z,23.11
2017-03-16T02:03:21.924Z,23.07
2017-03-16T02:03:40.170Z,23.08
2017-03-16T02:03:59.456Z,23.08
2017-03-16T02:04:18.247Z,23.07
2017-03-16T02:04:37.541Z,23.08
2017-03-16T02:04:56.316Z,23.09
2017-03-16T02:05:15.639Z,23.08
2017-03-16T02:05:34.405Z,23.11
2017-03-16T02:05:53.702Z,23.09
2017-03-16T02:06:12.983Z,23.15
2017-03-16T02:06:32.257Z,23.12
2017-03-16T02:06:51.520Z,23.15
2017-03-16T02:07:10.331Z,23.09
2017-03-16T02:07:29.616Z,23.05
2017-03-16T02:07:48.380Z,23.15
2017-03-16T02:08:07.701Z,23.2
2017-03-16T02:08:26.991Z,23.17
2017-03-16T02:08:45.778Z,23.09
2017-03-16T02:09:04.551Z,23.15
2017-03-16T02:09:23.325Z,23.15
2017-03-16T02:09:42.595Z,23.07
2017-03-16T02:10:01.880Z,23.11
2017-03-16T02:10:21.184Z,23.05
2017-03-16T02:10:40.462Z,23.07
2017-03-16T02:10:59.262Z,23.15
2017-03-16T02:11:18.061Z,23.07
2017-03-16T02:11:37.335Z,23.12
2017-03-16T02:11:56.100Z,23.12
2017-03-16T02:12:15.378Z,23.12
2017-03-16T02:12:34.150Z,23.09
2017-03-16T02:12:53.462Z,23.09
2017-03-16T02:13:12.758Z,23.09
2017-03-16T02:13:31.549Z,23.08
2017-03-16T02:13:50.304Z,23.17
2017-03-16T02:14:09.597Z,23.05
2017-03-16T02:14:27.852Z,23.15
2017-03-16T02:14:47.187Z,23.15
2017-03-16T02:15:06.498Z,23.12
2017-03-16T02:15:25.312Z,23.11
2017-03-16T02:15:44.638Z,23.12
2017-03-16T02:16:03.916Z,23.08
2017-03-16T02:16:22.704Z,23.17
2017-03-16T02:16:41.521Z,23.18
2017-03-16T02:17:00.817Z,23.15
2017-03-16T02:17:20.118Z,23.18
2017-03-16T02:17:39.424Z,23.17
2017-03-16T02:17:58.728Z,23.12
2017-03-16T02:18:18.026Z,23.11
2017-03-16T02:18:37.352Z,23.14
2017-03-16T02:18:56.653Z,23.11
2017-03-16T02:19:15.951Z,23.12
2017-03-16T02:19:34.742Z,23.09
2017-03-16T02:19:53.515Z,23.14
2017-03-16T02:20:12.305Z,23.11
2017-03-16T02:20:31.632Z,23.11
2017-03-16T02:20:50.928Z,23.08
2017-03-16T02:21:10.216Z,23.12
2017-03-16T02:21:29.000Z,23.08
2017-03-16T02:21:48.286Z,23.07
2017-03-16T02:22:07.572Z,23.08
2017-03-16T02:22:26.954Z,23.07
2017-03-16T02:22:45.742Z,23.14
2017-03-16T02:23:05.034Z,22.97
2017-03-16T02:23:23.840Z,23.09
2017-03-16T02:23:43.134Z,23.09
2017-03-16T02:24:02.445Z,23.11
2017-03-16T02:24:20.698Z,23.12
2017-03-16T02:24:39.448Z,23
2017-03-16T02:24:58.729Z,23.08
2017-03-16T02:25:18.019Z,23.09
2017-03-16T02:25:37.294Z,23.08
2017-03-16T02:25:56.057Z,23.08
2017-03-16T02:26:15.346Z,23.18
2017-03-16T02:26:34.659Z,23.14
2017-03-16T02:26:53.959Z,23.07
2017-03-16T02:27:13.258Z,23.07
2017-03-16T02:27:32.553Z,23.2
2017-03-16T02:27:52.448Z,23.18
2017-03-16T02:28:11.771Z,23.18
2017-03-16T02:28:31.096Z,23.17
2017-03-16T02:28:49.856Z,23.17
2017-03-16T02:29:09.123Z,23.17
2017-03-16T02:29:27.896Z,23.2
2017-03-16T02:29:47.215Z,23.14
2017-03-16T02:30:06.498Z,23.15
2017-03-16T02:30:25.284Z,23.15
2017-03-16T02:30:44.567Z,23.23
2017-03-16T02:31:03.852Z,23.22
2017-03-16T02:31:23.150Z,23.14
2017-03-16T02:31:41.951Z,23.22
2017-03-16T02:32:01.264Z,23.14
2017-03-16T02:32:20.651Z,23.09
2017-03-16T02:32:39.937Z,23.09
2017-03-16T02:32:59.249Z,23.04
2017-03-16T02:33:18.518Z,23.05
2017-03-16T02:33:37.807Z,23.07
2017-03-16T02:33:56.082Z,23.12
2017-03-16T02:34:15.366Z,23.12
2017-03-16T02:34:34.694Z,23.08
2017-03-16T02:34:53.473Z,22.97
2017-03-16T02:35:12.753Z,23.09
2017-03-16T02:35:32.057Z,23.11
2017-03-16T02:35:50.837Z,23.11
2017-03-16T02:36:10.206Z,23.07
2017-03-16T02:36:28.995Z,23.05
2017-03-16T02:36:47.777Z,23.08
2017-03-16T02:37:07.050Z,23.07
2017-03-16T02:37:25.826Z,23
2017-03-16T02:37:45.107Z,23.05
2017-03-16T02:38:04.413Z,22.93
2017-03-16T02:38:23.207Z,23.04
2017-03-16T02:38:42.546Z,23.04
2017-03-16T02:39:01.867Z,22.99
2017-03-16T02:39:21.132Z,22.99
2017-03-16T02:39:40.663Z,22.94
2017-03-16T02:40:00.214Z,22.99
2017-03-16T02:40:18.976Z,22.92
2017-03-16T02:40:38.269Z,22.99
2017-03-16T02:40:57.578Z,22.9
2017-03-16T02:41:16.874Z,22.9
2017-03-16T02:41:36.215Z,22.9
2017-03-16T02:41:55.502Z,22.87
2017-03-16T02:42:14.807Z,22.89
2017-03-16T02:42:34.116Z,22.84
2017-03-16T02:42:52.881Z,22.84
2017-03-16T02:43:12.193Z,22.72
2017-03-16T02:43:31.046Z,22.75
2017-03-16T02:43:50.330Z,22.78
2017-03-16T02:44:09.637Z,22.74
2017-03-16T02:44:28.944Z,22.69
2017-03-16T02:44:48.217Z,22.77
2017-03-16T02:45:06.997Z,22.69
2017-03-16T02:45:25.774Z,22.67
2017-03-16T02:45:45.072Z,22.71
2017-03-16T02:46:03.330Z,22.67
2017-03-16T02:46:22.645Z,22.65
2017-03-16T02:46:41.929Z,22.65
2017-03-16T02:47:00.207Z,22.62
2017-03-16T02:47:19.288Z,22.54
2017-03-16T02:47:38.071Z,22.54
2017-03-16T02:47:56.847Z,22.6
2017-03-16T02:48:16.180Z,22.56
2017-03-16T02:48:35.482Z,22.59
2017-03-16T02:48:54.266Z,22.57
2017-03-16T02:49:13.589Z,22.62
2017-03-16T02:49:31.846Z,22.52
2017-03-16T02:49:50.129Z,22.56
2017-03-16T02:50:08.931Z,22.57
2017-03-16T02:50:28.255Z,22.56
2017-03-16T02:50:47.542Z,22.6
2017-03-16T02:51:06.326Z,22.63
2017-03-16T02:51:25.635Z,22.57
2017-03-16T02:51:44.446Z,22.54
2017-03-16T02:52:03.731Z,22.59
2017-03-16T02:52:22.606Z,22.54
2017-03-16T02:52:41.913Z,22.57
2017-03-16T02:53:00.716Z,22.54
2017-03-16T02:53:19.998Z,22.57
2017-03-16T02:53:38.790Z,22.53
2017-03-16T02:53:58.112Z,22.59
2017-03-16T02:54:16.394Z,22.67
2017-03-16T02:54:35.184Z,22.54
2017-03-16T02:54:54.466Z,22.59
2017-03-16T02:55:13.813Z,22.62
2017-03-16T02:55:33.077Z,22.54
2017-03-16T02:55:52.356Z,22.57
2017-03-16T02:56:11.670Z,22.63
2017-03-16T02:56:30.970Z,22.57
2017-03-16T02:56:50.243Z,22.57
2017-03-16T02:57:09.045Z,22.68
2017-03-16T02:57:27.842Z,22.63
2017-03-16T02:57:47.143Z,22.65
2017-03-16T02:58:05.921Z,22.52
2017-03-16T02:58:25.222Z,22.63
2017-03-16T02:58:44.506Z,22.62
2017-03-16T02:59:03.822Z,22.63
2017-03-16T02:59:22.598Z,22.62
2017-03-16T02:59:41.373Z,22.53
2017-03-16T03:00:00.647Z,22.62
2017-03-16T03:00:19.437Z,22.62
2017-03-16T03:00:38.739Z,22.65
2017-03-16T03:00:57.527Z,22.63
2017-03-16T03:01:16.814Z,22.68
2017-03-16T03:01:36.131Z,22.67
2017-03-16T03:01:55.416Z,22.65
2017-03-16T03:02:14.198Z,22.65
2017-03-16T03:02:33.480Z,22.67
2017-03-16T03:02:52.271Z,22.62
2017-03-16T03:03:11.572Z,22.6
2017-03-16T03:03:30.852Z,22.62
2017-03-16T03:03:50.154Z,22.69
2017-03-16T03:04:08.949Z,22.67
2017-03-16T03:04:28.239Z,22.65
2017-03-16T03:04:47.546Z,22.65
2017-03-16T03:05:06.328Z,22.63
2017-03-16T03:05:25.595Z,22.65
2017-03-16T03:05:44.877Z,22.63
2017-03-16T03:06:04.170Z,22.62
2017-03-16T03:06:22.947Z,22.67
2017-03-16T03:06:41.721Z,22.69
2017-03-16T03:07:00.490Z,22.57
2017-03-16T03:07:19.260Z,22.69
2017-03-16T03:07:38.572Z,22.69
2017-03-16T03:07:57.873Z,22.67
2017-03-16T03:08:17.157Z,22.65
2017-03-16T03:08:36.464Z,22.63
2017-03-16T03:08:55.773Z,22.69
2017-03-16T03:09:15.072Z,22.65
2017-03-16T03:09:33.844Z,22.67
2017-03-16T03:09:53.139Z,22.62
2017-03-16T03:10:12.442Z,22.63
2017-03-16T03:10:31.246Z,22.62
2017-03-16T03:10:50.524Z,22.63
2017-03-16T03:11:09.840Z,22.62
2017-03-16T03:11:28.628Z,22.62
2017-03-16T03:11:47.921Z,22.54
2017-03-16T03:12:07.607Z,22.65
2017-03-16T03:12:26.362Z,22.63
2017-03-16T03:12:45.679Z,22.54
2017-03-16T03:13:04.462Z,22.6
2017-03-16T03:13:23.229Z,22.67
2017-03-16T03:13:42.536Z,22.56
2017-03-16T03:14:01.316Z,22.57
2017-03-16T03:14:20.611Z,22.56
2017-03-16T03:14:39.934Z,22.56
2017-03-16T03:14:58.708Z,22.67
2017-03-16T03:15:18.229Z,22.57
2017-03-16T03:15:37.012Z,22.67
2017-03-16T03:15:56.304Z,22.62
2017-03-16T03:16:15.604Z,22.67
2017-03-16T03:16:34.889Z,22.62
2017-03-16T03:16:54.186Z,22.63
2017-03-16T03:17:13.687Z,22.62
2017-03-16T03:17:32.984Z,22.68
2017-03-16T03:17:51.734Z,22.62
2017-03-16T03:18:11.024Z,22.67
2017-03-16T03:18:30.292Z,22.68
2017-03-16T03:18:49.576Z,22.68
2017-03-16T03:19:08.867Z,22.59
2017-03-16T03:19:27.671Z,22.67
2017-03-16T03:19:46.979Z,22.59
2017-03-16T03:20:05.745Z,22.56
2017-03-16T03:20:24.526Z,22.54
2017-03-16T03:20:43.827Z,22.62
2017-03-16T03:21:03.143Z,22.67
2017-03-16T03:21:22.450Z,22.59
2017-03-16T03:21:40.696Z,22.65
2017-03-16T03:21:59.986Z,22.68
2017-03-16T03:22:19.456Z,22.69
2017-03-16T03:22:38.251Z,22.68
2017-03-16T03:22:57.558Z,22.63
2017-03-16T03:23:16.845Z,22.67
2017-03-16T03:23:35.586Z,22.67
2017-03-16T03:23:54.873Z,22.67
2017-03-16T03:24:14.180Z,22.67
2017-03-16T03:24:33.487Z,22.68
2017-03-16T03:24:52.796Z,22.71
2017-03-16T03:25:12.092Z,22.67
2017-03-16T03:25:31.390Z,22.69
2017-03-16T03:25:50.681Z,22.65
2017-03-16T03:26:09.458Z,22.77
2017-03-16T03:26:28.745Z,22.74
2017-03-16T03:26:47.541Z,22.75
2017-03-16T03:27:06.857Z,22.71
2017-03-16T03:27:26.246Z,22.74
2017-03-16T03:27:45.562Z,22.77
2017-03-16T03:28:04.343Z,22.77
2017-03-16T03:28:23.628Z,22.75
2017-03-16T03:28:42.404Z,22.77
2017-03-16T03:29:01.161Z,22.78
2017-03-16T03:29:20.455Z,22.72
2017-03-16T03:29:39.748Z,22.79
2017-03-16T03:29:59.034Z,22.74
2017-03-16T03:30:17.840Z,22.77
2017-03-16T03:30:37.123Z,22.71
2017-03-16T03:30:56.407Z,22.74
2017-03-16T03:31:15.188Z,22.79
2017-03-16T03:31:34.487Z,22.67
2017-03-16T03:31:53.769Z,22.72
2017-03-16T03:32:13.108Z,22.65
2017-03-16T03:32:31.899Z,22.67
2017-03-16T03:32:50.164Z,22.67
2017-03-16T03:33:09.461Z,22.65
2017-03-16T03:33:27.742Z,22.74
2017-03-16T03:33:46.552Z,22.74
2017-03-16T03:34:05.856Z,22.71
2017-03-16T03:34:25.199Z,22.74
2017-03-16T03:34:44.507Z,22.65
2017-03-16T03:35:02.748Z,22.62
2017-03-16T03:35:22.019Z,22.65
2017-03-16T03:35:40.793Z,22.71
2017-03-16T03:35:59.054Z,22.71
2017-03-16T03:36:18.355Z,22.63
2017-03-16T03:36:37.157Z,22.75
2017-03-16T03:36:56.493Z,22.71
2017-03-16T03:37:15.279Z,22.68
2017-03-16T03:37:34.573Z,22.72
2017-03-16T03:37:53.893Z,22.68
2017-03-16T03:38:12.147Z,22.67
2017-03-16T03:38:31.472Z,22.67
2017-03-16T03:38:50.761Z,22.67
2017-03-16T03:39:09.524Z,22.71
2017-03-16T03:39:28.811Z,22.68
2017-03-16T03:39:48.093Z,22.62
2017-03-16T03:40:07.405Z,22.68
2017-03-16T03:40:26.694Z,22.68
2017-03-16T03:40:46.016Z,22.6
2017-03-16T03:41:05.292Z,22.65
2017-03-16T03:41:24.563Z,22.65
2017-03-16T03:41:43.351Z,22.63
2017-03-16T03:42:02.166Z,22.6
2017-03-16T03:42:21.568Z,22.65
2017-03-16T03:42:40.875Z,22.67
2017-03-16T03:43:00.166Z,22.56
2017-03-16T03:43:19.451Z,22.59
2017-03-16T03:43:38.228Z,22.53
2017-03-16T03:43:57.538Z,22.62
2017-03-16T03:44:16.855Z,22.59
2017-03-16T03:44:36.140Z,22.53
2017-03-16T03:44:54.947Z,22.59
2017-03-16T03:45:14.217Z,22.56
2017-03-16T03:45:32.974Z,22.59
2017-03-16T03:45:51.737Z,22.59
2017-03-16T03:46:10.511Z,22.59
2017-03-16T03:46:29.796Z,22.59
2017-03-16T03:46:49.084Z,22.56
2017-03-16T03:47:08.390Z,22.53
2017-03-16T03:47:27.680Z,22.52
2017-03-16T03:47:46.991Z,22.6
2017-03-16T03:48:06.325Z,22.53
2017-03-16T03:48:24.575Z,22.52
2017-03-16T03:48:43.849Z,22.53
2017-03-16T03:49:02.134Z,22.54
2017-03-16T03:49:21.441Z,22.62
2017-03-16T03:49:40.287Z,22.54
2017-03-16T03:49:59.074Z,22.56
2017-03-16T03:50:18.347Z,22.59
2017-03-16T03:50:37.635Z,22.59
2017-03-16T03:50:56.917Z,22.52
2017-03-16T03:51:16.207Z,22.53
2017-03-16T03:51:35.523Z,22.59
2017-03-16T03:51:54.320Z,22.59
2017-03-16T03:52:13.070Z,22.59
2017-03-16T03:52:31.843Z,22.56
2017-03-16T03:52:51.149Z,22.49
2017-03-16T03:53:09.399Z,22.62
2017-03-16T03:53:28.705Z,22.52
2017-03-16T03:53:48.011Z,22.42
2017-03-16T03:54:06.787Z,22.53
2017-03-16T03:54:26.094Z,22.56
2017-03-16T03:54:45.399Z,22.46
2017-03-16T03:55:04.182Z,22.42
2017-03-16T03:55:23.470Z,22.39
2017-03-16T03:55:42.261Z,22.46
2017-03-16T03:56:01.553Z,22.52
2017-03-16T03:56:19.805Z,22.42
2017-03-16T03:56:39.091Z,22.42
2017-03-16T03:56:58.405Z,22.57
2017-03-16T03:57:17.707Z,22.42
2017-03-16T03:57:36.488Z,22.41
2017-03-16T03:57:55.247Z,22.47
2017-03-16T03:58:14.555Z,22.44
2017-03-16T03:58:33.350Z,22.44
2017-03-16T03:58:52.649Z,22.53
2017-03-16T03:59:11.472Z,22.47
2017-03-16T03:59:30.768Z,22.47
2017-03-16T03:59:50.076Z,22.49
2017-03-16T04:00:09.357Z,22.47
2017-03-16T04:00:28.129Z,22.42
2017-03-16T04:00:47.420Z,22.44
2017-03-16T04:01:13.800Z,22.39
2017-03-16T04:01:33.073Z,22.46
2017-03-16T04:01:52.368Z,22.42
2017-03-16T04:02:11.147Z,22.52
2017-03-16T04:02:30.428Z,22.5
2017-03-16T04:02:49.197Z,22.54
2017-03-16T04:03:07.988Z,22.52
2017-03-16T04:03:27.296Z,22.42
2017-03-16T04:03:46.077Z,22.57
2017-03-16T04:04:05.408Z,22.54
2017-03-16T04:04:24.241Z,22.57
2017-03-16T04:04:43.552Z,22.54
2017-03-16T04:05:02.311Z,22.57
2017-03-16T04:05:21.574Z,22.62
2017-03-16T04:05:40.880Z,22.59
2017-03-16T04:05:59.687Z,22.59
2017-03-16T04:06:18.975Z,22.53
2017-03-16T04:06:37.749Z,22.52
2017-03-16T04:06:57.031Z,22.49